Search for airport 
image banner adimage banner adimage banner ad
image banner ad

KSBD - San Bernardino Intl

Located in San Bernardino, United States

ICAO - SBD, IATA - SBD

Data provided by Airmate  

General information

Coordinates: N34°5'43" W117°14'6"
Elevation is 1159 feet MSL.
Magnetic variation is 13° East
View others Airports in California

Operational data

Special qualification required
Current time UTC:
Current local time:
Weather
METAR: KSBD 221350Z 00000KT 7SM BKN180 18/13 A2994
TAF: KSBD 221137Z 2212/2312 26005KT P6SM BKN200 FM222200 25013G20KT P6SM SCT250 FM230300 24005KT P6SM BKN200
View NOTAMs / SUP AIP / TFR affecting this airport [VIEW]
Communications frequencies: [VIEW]

Runways:

RWY identifierQFULength (ft)Width (ft)SurfaceLDA (ft)
0670°10000200CONC10000
24250°10000200CONC10000

Airport contact information

Address: San Bernardino United States

Satellite view of KSBD